createdAt,value
2018-06-20T00:02:22.233Z,0.00
2018-06-20T00:05:22.221Z,0.00
2018-06-20T00:09:47.630Z,0.00
2018-06-20T00:12:47.595Z,0.00
2018-06-20T00:15:47.561Z,0.00
2018-06-20T00:18:47.537Z,0.00
2018-06-20T00:21:47.491Z,0.00
2018-06-20T00:24:47.485Z,0.00
2018-06-20T00:27:47.431Z,0.00
2018-06-20T00:30:47.383Z,0.00
2018-06-20T00:33:47.351Z,0.00
2018-06-20T00:36:47.327Z,0.00
2018-06-20T00:39:47.274Z,0.00
2018-06-20T00:42:47.247Z,0.00
2018-06-20T00:45:47.212Z,0.00
2018-06-20T00:48:47.211Z,0.00
2018-06-20T00:51:47.141Z,0.00
2018-06-20T00:54:47.124Z,0.00
2018-06-20T00:57:47.065Z,0.00
2018-06-20T01:00:47.054Z,0.00
2018-06-20T01:03:47.031Z,0.00
2018-06-20T01:06:46.988Z,0.00
2018-06-20T01:09:46.946Z,0.00
2018-06-20T01:12:46.936Z,0.00
2018-06-20T01:15:46.877Z,0.00
2018-06-20T01:18:46.845Z,0.00
2018-06-20T01:21:46.827Z,0.00
2018-06-20T01:24:46.817Z,0.00
2018-06-20T01:27:46.744Z,0.00
2018-06-20T01:30:46.715Z,0.00
2018-06-20T01:33:46.663Z,0.00
2018-06-20T01:36:46.644Z,0.00
2018-06-20T01:39:46.599Z,0.00
2018-06-20T01:42:46.601Z,0.00
2018-06-20T01:45:46.534Z,0.00
2018-06-20T01:48:46.523Z,0.00
2018-06-20T01:51:46.464Z,0.00
2018-06-20T01:54:46.463Z,0.00
2018-06-20T01:57:46.435Z,0.00
2018-06-20T02:00:46.376Z,0.00
2018-06-20T02:03:46.331Z,0.00
2018-06-20T02:06:46.308Z,0.00
2018-06-20T02:09:46.268Z,0.00
2018-06-20T02:12:46.301Z,0.00
2018-06-20T02:15:46.210Z,0.00
2018-06-20T02:18:46.164Z,0.00
2018-06-20T02:21:46.128Z,0.00
2018-06-20T02:24:46.116Z,0.00
2018-06-20T02:27:46.074Z,0.00
2018-06-20T02:30:46.041Z,0.00
2018-06-20T02:33:46.002Z,0.00
2018-06-20T02:36:46.052Z,0.00
2018-06-20T02:39:45.929Z,0.00
2018-06-20T02:42:45.932Z,0.00
2018-06-20T02:45:45.850Z,0.00
2018-06-20T02:48:45.833Z,0.00
2018-06-20T02:51:45.785Z,0.00
2018-06-20T02:54:45.780Z,0.00
2018-06-20T02:57:45.728Z,0.00
2018-06-20T03:00:45.716Z,0.00
2018-06-20T03:03:45.645Z,0.00
2018-06-20T03:06:45.665Z,0.00
2018-06-20T03:09:45.587Z,5.62
2018-06-20T03:12:45.579Z,5.62
2018-06-20T03:15:45.513Z,5.62
2018-06-20T03:18:45.509Z,11.25
2018-06-20T03:21:45.458Z,11.25
2018-06-20T03:24:45.435Z,16.88
2018-06-20T03:27:45.388Z,16.88
2018-06-20T03:30:45.371Z,22.50
2018-06-20T03:33:45.308Z,22.50
2018-06-20T03:36:45.330Z,28.12
2018-06-20T03:39:45.253Z,33.75
2018-06-20T03:42:45.235Z,39.38
2018-06-20T03:45:45.220Z,50.62
2018-06-20T03:48:45.164Z,56.25
2018-06-20T03:51:45.127Z,61.88
2018-06-20T03:54:45.097Z,67.50
2018-06-20T03:57:45.045Z,78.75
2018-06-20T04:00:45.021Z,90.00
2018-06-20T04:03:44.966Z,101.25
2018-06-20T04:06:44.982Z,112.50
2018-06-20T04:09:44.944Z,129.38
2018-06-20T04:12:44.955Z,140.62
2018-06-20T04:15:47.600Z,140.62
2018-06-20T04:18:44.845Z,151.88
2018-06-20T04:21:44.781Z,157.50
2018-06-20T04:24:44.751Z,180.00
2018-06-20T04:27:44.698Z,191.25
2018-06-20T04:30:44.717Z,208.12
2018-06-20T04:33:44.675Z,219.38
2018-06-20T04:36:44.625Z,230.62
2018-06-20T04:39:44.565Z,253.12
2018-06-20T04:42:44.582Z,281.25
2018-06-20T04:45:44.521Z,343.12
2018-06-20T04:48:44.496Z,393.75
2018-06-20T04:51:44.449Z,382.50
2018-06-20T04:54:44.439Z,416.25
2018-06-20T04:57:44.377Z,455.62
2018-06-20T05:00:44.355Z,450.00
2018-06-20T05:03:44.298Z,416.25
2018-06-20T05:06:44.283Z,360.00
2018-06-20T05:09:44.259Z,298.12
2018-06-20T05:12:44.209Z,303.75
2018-06-20T05:15:44.185Z,376.88
2018-06-20T05:18:44.157Z,320.62
2018-06-20T05:21:44.105Z,337.50
2018-06-20T05:24:44.094Z,348.75
2018-06-20T05:27:44.045Z,337.50
2018-06-20T05:30:44.007Z,489.38
2018-06-20T05:33:44.002Z,579.38
2018-06-20T05:36:43.969Z,601.88
2018-06-20T05:39:43.936Z,697.50
2018-06-20T05:42:43.873Z,725.62
2018-06-20T05:45:43.835Z,742.50
2018-06-20T05:48:43.831Z,781.88
2018-06-20T05:51:43.771Z,804.38
2018-06-20T05:54:43.748Z,866.25
2018-06-20T05:57:43.694Z,900.00
2018-06-20T06:00:43.694Z,900.00
2018-06-20T06:03:43.626Z,984.38
2018-06-20T06:06:43.628Z,984.38
2018-06-20T06:09:43.560Z,1001.25
2018-06-20T06:12:43.556Z,1046.25
2018-06-20T06:15:43.495Z,1096.88
2018-06-20T06:18:43.478Z,1108.12
2018-06-20T06:21:43.434Z,1147.50
2018-06-20T06:24:43.427Z,1198.12
2018-06-20T06:27:43.364Z,1209.38
2018-06-20T06:30:43.433Z,1203.75
2018-06-20T06:33:43.304Z,1293.75
2018-06-20T06:36:43.282Z,1305.00
2018-06-20T06:39:43.295Z,916.88
2018-06-20T06:42:43.258Z,523.12
2018-06-20T06:45:43.182Z,573.75
2018-06-20T06:48:43.183Z,1490.62
2018-06-20T06:51:43.144Z,1479.38
2018-06-20T06:54:43.110Z,1485.00
2018-06-20T06:57:43.046Z,1524.38
2018-06-20T07:00:43.023Z,528.75
2018-06-20T07:03:42.982Z,945.00
2018-06-20T07:06:43.220Z,1608.75
2018-06-20T07:09:42.919Z,1530.00
2018-06-20T07:12:42.888Z,1732.50
2018-06-20T07:15:42.855Z,1755.00
2018-06-20T07:18:42.825Z,1822.50
2018-06-20T07:21:42.788Z,1755.00
2018-06-20T07:24:42.772Z,1867.50
2018-06-20T07:27:43.040Z,1850.62
2018-06-20T07:30:42.730Z,1974.38
2018-06-20T07:33:42.661Z,1766.25
2018-06-20T07:36:42.659Z,1951.88
2018-06-20T07:39:42.607Z,1788.75
2018-06-20T07:42:42.594Z,1850.62
2018-06-20T07:45:42.538Z,759.38
2018-06-20T07:48:42.526Z,2171.25
2018-06-20T07:51:42.496Z,2092.50
2018-06-20T07:54:42.467Z,2115.00
2018-06-20T07:57:42.407Z,2176.88
2018-06-20T08:00:42.413Z,2143.12
2018-06-20T08:03:42.393Z,2070.00
2018-06-20T08:06:42.335Z,1867.50
2018-06-20T08:09:42.297Z,2435.62
2018-06-20T08:12:42.273Z,2441.25
2018-06-20T08:15:42.229Z,1248.75
2018-06-20T08:18:42.213Z,2638.12
2018-06-20T08:21:42.181Z,2626.88
2018-06-20T08:24:42.186Z,843.75
2018-06-20T08:27:42.113Z,2396.25
2018-06-20T08:30:42.100Z,2593.12
2018-06-20T08:33:42.079Z,2379.38
2018-06-20T08:36:42.019Z,630.00
2018-06-20T08:39:42.003Z,2379.38
2018-06-20T08:42:41.968Z,2491.88
2018-06-20T08:45:41.928Z,2514.38
2018-06-20T08:48:41.931Z,2598.75
2018-06-20T08:51:41.918Z,2767.50
2018-06-20T08:54:41.853Z,2818.12
2018-06-20T08:57:41.818Z,2716.88
2018-06-20T09:00:41.795Z,2947.50
2018-06-20T09:03:41.772Z,905.62
2018-06-20T09:06:41.758Z,1085.62
2018-06-20T09:09:41.688Z,2784.38
2018-06-20T09:12:41.686Z,2773.12
2018-06-20T09:15:41.631Z,2756.25
2018-06-20T09:18:41.607Z,2908.12
2018-06-20T09:21:41.592Z,3105.00
2018-06-20T09:24:41.558Z,3116.25
2018-06-20T09:27:41.516Z,1400.62
2018-06-20T09:30:41.489Z,2795.62
2018-06-20T09:33:41.461Z,2885.62
2018-06-20T09:36:41.439Z,2694.38
2018-06-20T09:39:41.407Z,2913.75
2018-06-20T09:42:41.378Z,3116.25
2018-06-20T09:45:41.340Z,961.88
2018-06-20T09:48:41.316Z,2570.62
2018-06-20T09:51:41.290Z,3071.25
2018-06-20T09:54:41.280Z,3211.88
2018-06-20T09:57:41.661Z,894.38
2018-06-20T10:00:41.281Z,3172.50
2018-06-20T10:03:41.187Z,838.12
2018-06-20T10:06:41.209Z,1901.25
2018-06-20T10:09:41.104Z,2970.00
2018-06-20T10:12:41.089Z,1524.38
2018-06-20T10:15:41.056Z,3003.75
2018-06-20T10:18:41.043Z,3048.75
2018-06-20T10:21:41.004Z,3003.75
2018-06-20T10:24:41.014Z,3054.38
2018-06-20T10:27:40.946Z,3026.25
2018-06-20T10:30:40.932Z,3268.12
2018-06-20T10:33:40.926Z,922.50
2018-06-20T10:36:40.889Z,3240.00
2018-06-20T10:39:40.832Z,3161.25
2018-06-20T10:42:40.835Z,3116.25
2018-06-20T10:45:40.779Z,3290.62
2018-06-20T10:48:40.769Z,691.88
2018-06-20T10:51:40.757Z,3358.12
2018-06-20T10:54:40.704Z,3065.62
2018-06-20T10:57:40.681Z,2525.62
2018-06-20T11:00:40.683Z,3346.88
2018-06-20T11:03:40.651Z,3251.25
2018-06-20T11:06:40.623Z,3031.88
2018-06-20T11:09:40.640Z,2818.12
2018-06-20T11:12:40.562Z,3026.25
2018-06-20T11:15:40.522Z,3020.62
2018-06-20T11:18:40.635Z,3037.50
2018-06-20T11:21:40.460Z,3116.25
2018-06-20T11:24:40.445Z,3127.50
2018-06-20T11:27:41.653Z,3054.38
2018-06-20T11:30:40.421Z,3206.25
2018-06-20T11:33:40.371Z,3155.62
2018-06-20T11:36:40.369Z,3240.00
2018-06-20T11:39:40.300Z,2986.88
2018-06-20T11:42:40.321Z,3172.50
2018-06-20T11:45:40.277Z,3099.38
2018-06-20T11:48:40.255Z,3043.12
2018-06-20T11:51:40.202Z,3071.25
2018-06-20T11:54:40.200Z,3003.75
2018-06-20T11:57:40.160Z,3116.25
2018-06-20T12:00:40.139Z,3048.75
2018-06-20T12:03:40.108Z,3026.25
2018-06-20T12:06:40.112Z,3015.00
2018-06-20T12:09:40.059Z,2998.12
2018-06-20T12:12:40.056Z,2958.75
2018-06-20T12:15:40.013Z,3037.50
2018-06-20T12:18:39.999Z,2930.62
2018-06-20T12:21:39.973Z,1423.12
2018-06-20T12:24:39.952Z,3093.75
2018-06-20T12:27:40.188Z,2863.12
2018-06-20T12:30:39.915Z,3065.62
2018-06-20T12:33:39.864Z,3031.88
2018-06-20T12:36:39.936Z,2896.88
2018-06-20T12:39:39.822Z,2941.88
2018-06-20T12:42:39.813Z,3183.75
2018-06-20T12:45:39.765Z,2733.75
2018-06-20T12:48:39.760Z,2908.12
2018-06-20T12:51:39.724Z,2846.25
2018-06-20T12:54:40.604Z,3015.00
2018-06-20T12:57:40.093Z,2756.25
2018-06-20T13:00:39.668Z,2846.25
2018-06-20T13:03:39.633Z,2958.75
2018-06-20T13:06:39.634Z,2908.12
2018-06-20T13:09:39.582Z,2851.88
2018-06-20T13:12:39.577Z,2835.00
2018-06-20T13:15:39.535Z,2947.50
2018-06-20T13:18:39.534Z,2829.38
2018-06-20T13:21:39.500Z,2688.75
2018-06-20T13:24:39.492Z,2981.25
2018-06-20T13:27:39.740Z,2818.12
2018-06-20T13:30:39.441Z,2683.12
2018-06-20T13:33:39.411Z,2722.50
2018-06-20T13:36:39.403Z,2705.62
2018-06-20T13:39:39.459Z,2548.12
2018-06-20T13:42:39.340Z,2570.62
2018-06-20T13:45:39.330Z,2469.38
2018-06-20T13:48:39.303Z,2469.38
2018-06-20T13:51:39.281Z,2452.50
2018-06-20T13:54:39.260Z,2649.38
2018-06-20T13:57:39.582Z,2508.75
2018-06-20T14:00:39.225Z,2531.25
2018-06-20T14:03:39.174Z,2548.12
2018-06-20T14:06:39.184Z,2503.12
2018-06-20T14:09:39.135Z,2548.12
2018-06-20T14:12:39.119Z,2531.25
2018-06-20T14:15:39.077Z,2463.75
2018-06-20T14:18:39.083Z,2435.62
2018-06-20T14:21:39.115Z,1175.62
2018-06-20T14:24:39.027Z,2379.38
2018-06-20T14:27:38.988Z,2491.88
2018-06-20T14:30:38.974Z,2041.88
2018-06-20T14:33:38.931Z,2244.38
2018-06-20T14:36:38.923Z,2278.12
2018-06-20T14:39:38.878Z,2300.62
2018-06-20T14:42:38.897Z,2255.62
2018-06-20T14:45:38.833Z,2362.50
2018-06-20T14:48:38.833Z,2593.12
2018-06-20T14:51:38.773Z,2469.38
2018-06-20T14:54:38.774Z,1968.75
2018-06-20T14:57:38.728Z,2019.38
2018-06-20T15:00:38.711Z,1738.12
2018-06-20T15:03:38.671Z,1715.62
2018-06-20T15:06:38.647Z,1861.88
2018-06-20T15:09:38.618Z,2165.62
2018-06-20T15:12:38.611Z,1074.38
2018-06-20T15:15:38.571Z,630.00
2018-06-20T15:18:38.546Z,1665.00
2018-06-20T15:21:38.521Z,1468.12
2018-06-20T15:24:38.498Z,1479.38
2018-06-20T15:27:38.462Z,1878.75
2018-06-20T15:30:38.442Z,1890.00
2018-06-20T15:33:38.406Z,1912.50
2018-06-20T15:36:38.379Z,1845.00
2018-06-20T15:39:38.335Z,1833.75
2018-06-20T15:42:38.358Z,1710.00
2018-06-20T15:45:38.290Z,1861.88
2018-06-20T15:48:38.263Z,1839.38
2018-06-20T15:51:38.232Z,1715.62
2018-06-20T15:54:38.225Z,1783.12
2018-06-20T15:57:38.168Z,1777.50
2018-06-20T16:00:38.148Z,1406.25
2018-06-20T16:03:38.117Z,1693.12
2018-06-20T16:06:38.098Z,1580.62
2018-06-20T16:09:38.055Z,1496.25
2018-06-20T16:12:38.024Z,1468.12
2018-06-20T16:15:38.000Z,1614.38
2018-06-20T16:18:37.987Z,1496.25
2018-06-20T16:21:37.934Z,1490.62
2018-06-20T16:24:37.925Z,1423.12
2018-06-20T16:27:37.874Z,1434.38
2018-06-20T16:30:37.867Z,1243.12
2018-06-20T16:33:37.818Z,1355.62
2018-06-20T16:36:43.097Z,1305.00
2018-06-20T16:39:37.758Z,1265.62
2018-06-20T16:42:37.778Z,1164.38
2018-06-20T16:45:37.696Z,1153.12
2018-06-20T16:48:37.701Z,1153.12
2018-06-20T16:51:37.637Z,1074.38
2018-06-20T16:54:37.664Z,1057.50
2018-06-20T16:57:37.582Z,978.75
2018-06-20T17:00:37.568Z,990.00
2018-06-20T17:03:37.545Z,939.38
2018-06-20T17:06:37.519Z,905.62
2018-06-20T17:09:37.474Z,956.25
2018-06-20T17:12:37.520Z,826.88
2018-06-20T17:15:37.407Z,849.38
2018-06-20T17:18:37.436Z,815.62
2018-06-20T17:21:37.373Z,781.88
2018-06-20T17:24:37.363Z,781.88
2018-06-20T17:27:37.290Z,742.50
2018-06-20T17:30:37.288Z,714.38
2018-06-20T17:33:37.236Z,669.38
2018-06-20T17:36:37.218Z,635.62
2018-06-20T17:39:37.176Z,618.75
2018-06-20T17:42:37.166Z,613.12
2018-06-20T17:45:37.112Z,585.00
2018-06-20T17:48:37.095Z,556.88
2018-06-20T17:51:37.055Z,551.25
2018-06-20T17:54:37.037Z,382.50
2018-06-20T17:57:36.987Z,292.50
2018-06-20T18:00:37.094Z,382.50
2018-06-20T18:03:36.936Z,461.25
2018-06-20T18:06:36.910Z,444.38
2018-06-20T18:09:36.865Z,410.62
2018-06-20T18:12:36.843Z,286.88
2018-06-20T18:15:36.801Z,225.00
2018-06-20T18:18:36.784Z,219.38
2018-06-20T18:21:36.751Z,213.75
2018-06-20T18:24:36.762Z,208.12
2018-06-20T18:27:36.679Z,202.50
2018-06-20T18:30:36.651Z,196.88
2018-06-20T18:33:36.617Z,191.25
2018-06-20T18:36:36.588Z,185.62
2018-06-20T18:39:36.590Z,174.38
2018-06-20T18:42:36.532Z,168.75
2018-06-20T18:45:36.553Z,163.12
2018-06-20T18:48:36.481Z,157.50
2018-06-20T18:51:36.477Z,146.25
2018-06-20T18:54:36.404Z,140.62
2018-06-20T18:57:36.354Z,129.38
2018-06-20T19:00:36.350Z,123.75
2018-06-20T19:03:36.284Z,118.12
2018-06-20T19:06:36.280Z,112.50
2018-06-20T19:09:36.225Z,101.25
2018-06-20T19:12:36.194Z,95.62
2018-06-20T19:15:36.176Z,90.00
2018-06-20T19:18:36.137Z,84.38
2018-06-20T19:21:36.231Z,73.12
2018-06-20T19:24:36.072Z,67.50
2018-06-20T19:27:36.034Z,61.88
2018-06-20T19:30:35.998Z,50.62
2018-06-20T19:33:35.969Z,45.00
2018-06-20T19:36:35.940Z,39.38
2018-06-20T19:39:35.888Z,33.75
2018-06-20T19:42:35.866Z,28.12
2018-06-20T19:45:35.831Z,22.50
2018-06-20T19:49:09.974Z,22.50
2018-06-20T19:51:35.753Z,16.88
2018-06-20T19:54:35.748Z,11.25
2018-06-20T19:57:35.691Z,11.25
2018-06-20T20:00:35.694Z,5.62
2018-06-20T20:03:35.626Z,5.62
2018-06-20T20:06:35.613Z,0.00
2018-06-20T20:09:35.556Z,0.00
2018-06-20T20:12:36.142Z,0.00
2018-06-20T20:15:35.507Z,0.00
2018-06-20T20:18:35.470Z,0.00
2018-06-20T20:21:35.445Z,0.00
2018-06-20T20:24:35.416Z,0.00
2018-06-20T20:27:35.378Z,0.00
2018-06-20T20:30:35.337Z,0.00
2018-06-20T20:33:35.315Z,0.00
2018-06-20T20:36:35.293Z,0.00
2018-06-20T20:39:35.241Z,0.00
2018-06-20T20:42:35.219Z,0.00
2018-06-20T20:45:35.172Z,0.00
2018-06-20T20:48:57.180Z,0.00
2018-06-20T20:51:35.102Z,0.00
2018-06-20T20:54:35.097Z,0.00
2018-06-20T20:57:35.033Z,0.00
2018-06-20T21:00:35.026Z,0.00
2018-06-20T21:03:34.973Z,0.00
2018-06-20T21:06:34.957Z,0.00
2018-06-20T21:09:34.904Z,0.00
2018-06-20T21:12:34.917Z,0.00
2018-06-20T21:15:34.848Z,0.00
2018-06-20T21:18:35.098Z,0.00
2018-06-20T21:21:34.768Z,0.00
2018-06-20T21:24:34.756Z,0.00
2018-06-20T21:27:34.717Z,0.00
2018-06-20T21:30:34.690Z,0.00
2018-06-20T21:33:34.637Z,0.00
2018-06-20T21:36:34.625Z,0.00
2018-06-20T21:39:34.578Z,0.00
2018-06-20T21:42:34.571Z,0.00
2018-06-20T21:45:34.499Z,0.00
2018-06-20T21:48:34.564Z,0.00
2018-06-20T21:51:34.442Z,0.00
2018-06-20T21:54:34.424Z,0.00
2018-06-20T21:57:34.366Z,0.00
2018-06-20T22:00:34.362Z,0.00
2018-06-20T22:03:36.073Z,0.00
2018-06-20T22:06:34.285Z,0.00
2018-06-20T22:09:34.239Z,0.00
2018-06-20T22:12:34.240Z,0.00
2018-06-20T22:15:34.176Z,0.00
2018-06-20T22:18:34.170Z,0.00
2018-06-20T22:21:34.100Z,0.00
2018-06-20T22:24:34.093Z,0.00
2018-06-20T22:27:34.038Z,0.00
2018-06-20T22:30:34.017Z,0.00
2018-06-20T22:33:33.988Z,0.00
2018-06-20T22:36:33.959Z,0.00
2018-06-20T22:39:33.920Z,0.00
2018-06-20T22:42:33.896Z,0.00
2018-06-20T22:45:33.843Z,0.00
2018-06-20T22:48:33.818Z,0.00
2018-06-20T22:51:33.772Z,0.00
2018-06-20T22:54:33.745Z,0.00
2018-06-20T22:57:33.731Z,0.00
2018-06-20T23:00:33.703Z,0.00
2018-06-20T23:03:33.646Z,0.00
2018-06-20T23:06:33.608Z,0.00
2018-06-20T23:09:33.585Z,0.00
2018-06-20T23:12:33.566Z,0.00
2018-06-20T23:15:33.508Z,0.00
2018-06-20T23:18:33.473Z,0.00
2018-06-20T23:21:33.450Z,0.00
2018-06-20T23:24:33.417Z,0.00
2018-06-20T23:27:33.372Z,0.00
2018-06-20T23:30:33.342Z,0.00
2018-06-20T23:33:33.309Z,0.00
2018-06-20T23:36:33.281Z,0.00
2018-06-20T23:39:33.240Z,0.00
2018-06-20T23:42:33.221Z,0.00
2018-06-20T23:45:33.177Z,0.00
2018-06-20T23:48:33.234Z,0.00
2018-06-20T23:51:33.122Z,0.00
2018-06-20T23:54:33.070Z,0.00
2018-06-20T23:57:33.053Z,0.00
